sensor_id;sensor_type;location;lat;lon;timestamp;P1;durP1;ratioP1;P2;durP2;ratioP2
59388;SDS011;51830;45.202;19.720;2023-03-24T00:02:15;48.95;;;18.70;;
59388;SDS011;51830;45.202;19.720;2023-03-24T00:04:42;32.42;;;11.55;;
59388;SDS011;51830;45.202;19.720;2023-03-24T00:07:08;31.23;;;11.05;;
59388;SDS011;51830;45.202;19.720;2023-03-24T00:09:38;24.30;;;8.57;;
59388;SDS011;51830;45.202;19.720;2023-03-24T00:12:05;22.48;;;7.25;;
59388;SDS011;51830;45.202;19.720;2023-03-24T00:14:33;17.75;;;5.70;;
59388;SDS011;51830;45.202;19.720;2023-03-24T00:17:01;16.10;;;5.22;;
59388;SDS011;51830;45.202;19.720;2023-03-24T00:19:27;15.90;;;4.95;;
59388;SDS011;51830;45.202;19.720;2023-03-24T00:21:53;14.73;;;4.88;;
59388;SDS011;51830;45.202;19.720;2023-03-24T00:24:20;16.17;;;4.55;;
59388;SDS011;51830;45.202;19.720;2023-03-24T00:26:46;36.72;;;12.43;;
59388;SDS011;51830;45.202;19.720;2023-03-24T00:29:15;32.63;;;10.57;;
59388;SDS011;51830;45.202;19.720;2023-03-24T00:31:43;47.53;;;17.20;;
59388;SDS011;51830;45.202;19.720;2023-03-24T00:34:09;53.95;;;23.33;;
59388;SDS011;51830;45.202;19.720;2023-03-24T00:36:38;40.63;;;17.35;;
59388;SDS011;51830;45.202;19.720;2023-03-24T00:39:04;42.53;;;15.95;;
59388;SDS011;51830;45.202;19.720;2023-03-24T00:41:30;59.67;;;20.38;;
59388;SDS011;51830;45.202;19.720;2023-03-24T00:43:59;58.83;;;20.67;;
59388;SDS011;51830;45.202;19.720;2023-03-24T00:46:27;41.20;;;15.75;;
59388;SDS011;51830;45.202;19.720;2023-03-24T00:48:54;44.58;;;18.15;;
59388;SDS011;51830;45.202;19.720;2023-03-24T00:51:31;41.80;;;17.58;;
59388;SDS011;51830;45.202;19.720;2023-03-24T00:53:58;31.98;;;14.40;;
59388;SDS011;51830;45.202;19.720;2023-03-24T00:56:26;26.05;;;10.90;;
59388;SDS011;51830;45.202;19.720;2023-03-24T00:58:53;39.10;;;14.60;;
59388;SDS011;51830;45.202;19.720;2023-03-24T01:01:22;30.92;;;11.43;;
59388;SDS011;51830;45.202;19.720;2023-03-24T01:03:49;28.50;;;10.27;;
59388;SDS011;51830;45.202;19.720;2023-03-24T01:06:16;38.33;;;13.38;;
59388;SDS011;51830;45.202;19.720;2023-03-24T01:08:43;34.40;;;12.05;;
59388;SDS011;51830;45.202;19.720;2023-03-24T01:11:09;48.17;;;16.80;;
59388;SDS011;51830;45.202;19.720;2023-03-24T01:13:37;26.35;;;10.73;;
59388;SDS011;51830;45.202;19.720;2023-03-24T01:16:05;21.38;;;7.25;;
59388;SDS011;51830;45.202;19.720;2023-03-24T01:18:32;21.83;;;6.82;;
59388;SDS011;51830;45.202;19.720;2023-03-24T01:20:59;17.63;;;5.32;;
59388;SDS011;51830;45.202;19.720;2023-03-24T01:23:25;20.67;;;6.93;;
59388;SDS011;51830;45.202;19.720;2023-03-24T01:25:55;23.52;;;9.00;;
59388;SDS011;51830;45.202;19.720;2023-03-24T01:28:21;538.65;;;134.43;;
59388;SDS011;51830;45.202;19.720;2023-03-24T01:30:52;293.70;;;70.20;;
59388;SDS011;51830;45.202;19.720;2023-03-24T01:33:19;268.92;;;63.70;;
59388;SDS011;51830;45.202;19.720;2023-03-24T01:35:45;240.45;;;57.72;;
59388;SDS011;51830;45.202;19.720;2023-03-24T01:38:12;238.13;;;62.53;;
59388;SDS011;51830;45.202;19.720;2023-03-24T01:40:40;220.10;;;62.25;;
59388;SDS011;51830;45.202;19.720;2023-03-24T01:43:12;317.85;;;97.18;;
59388;SDS011;51830;45.202;19.720;2023-03-24T01:45:43;249.15;;;75.80;;
59388;SDS011;51830;45.202;19.720;2023-03-24T01:48:11;92.93;;;35.85;;
59388;SDS011;51830;45.202;19.720;2023-03-24T01:50:38;52.17;;;20.10;;
59388;SDS011;51830;45.202;19.720;2023-03-24T01:53:05;46.55;;;20.35;;
59388;SDS011;51830;45.202;19.720;2023-03-24T01:55:32;34.33;;;14.35;;
59388;SDS011;51830;45.202;19.720;2023-03-24T01:57:59;32.78;;;12.30;;
59388;SDS011;51830;45.202;19.720;2023-03-24T02:00:26;20.90;;;7.60;;
59388;SDS011;51830;45.202;19.720;2023-03-24T02:02:57;25.80;;;11.38;;
59388;SDS011;51830;45.202;19.720;2023-03-24T02:05:25;20.55;;;8.27;;
59388;SDS011;51830;45.202;19.720;2023-03-24T02:07:58;20.92;;;8.85;;
59388;SDS011;51830;45.202;19.720;2023-03-24T02:10:27;23.27;;;9.10;;
59388;SDS011;51830;45.202;19.720;2023-03-24T02:12:55;20.35;;;7.13;;
59388;SDS011;51830;45.202;19.720;2023-03-24T02:15:22;18.38;;;6.18;;
59388;SDS011;51830;45.202;19.720;2023-03-24T02:23:27;14.98;;;5.00;;
59388;SDS011;51830;45.202;19.720;2023-03-24T02:46:44;37.08;;;13.25;;
59388;SDS011;51830;45.202;19.720;2023-03-24T02:52:06;78.85;;;33.28;;
59388;SDS011;51830;45.202;19.720;2023-03-24T02:55:17;70.10;;;25.50;;
59388;SDS011;51830;45.202;19.720;2023-03-24T03:03:28;51.85;;;19.50;;
59388;SDS011;51830;45.202;19.720;2023-03-24T03:06:02;31.45;;;12.52;;
59388;SDS011;51830;45.202;19.720;2023-03-24T03:08:29;37.42;;;16.63;;
59388;SDS011;51830;45.202;19.720;2023-03-24T03:10:58;32.05;;;12.95;;
59388;SDS011;51830;45.202;19.720;2023-03-24T03:13:33;24.60;;;9.98;;
59388;SDS011;51830;45.202;19.720;2023-03-24T03:16:05;19.42;;;6.93;;
59388;SDS011;51830;45.202;19.720;2023-03-24T03:18:35;21.73;;;8.57;;
59388;SDS011;51830;45.202;19.720;2023-03-24T03:21:05;21.92;;;7.30;;
59388;SDS011;51830;45.202;19.720;2023-03-24T03:23:36;18.75;;;7.85;;
59388;SDS011;51830;45.202;19.720;2023-03-24T03:26:03;19.02;;;7.18;;
59388;SDS011;51830;45.202;19.720;2023-03-24T03:28:32;19.20;;;6.65;;
59388;SDS011;51830;45.202;19.720;2023-03-24T03:31:01;17.40;;;5.28;;
59388;SDS011;51830;45.202;19.720;2023-03-24T03:33:32;17.55;;;6.15;;
59388;SDS011;51830;45.202;19.720;2023-03-24T03:36:03;20.05;;;6.78;;
59388;SDS011;51830;45.202;19.720;2023-03-24T03:41:02;16.80;;;5.57;;
59388;SDS011;51830;45.202;19.720;2023-03-24T03:43:30;16.92;;;5.70;;
59388;SDS011;51830;45.202;19.720;2023-03-24T03:45:57;16.48;;;4.57;;
59388;SDS011;51830;45.202;19.720;2023-03-24T03:48:24;17.50;;;6.30;;
59388;SDS011;51830;45.202;19.720;2023-03-24T03:50:51;17.15;;;5.13;;
59388;SDS011;51830;45.202;19.720;2023-03-24T03:53:18;15.45;;;5.13;;
59388;SDS011;51830;45.202;19.720;2023-03-24T03:55:45;16.38;;;5.15;;
59388;SDS011;51830;45.202;19.720;2023-03-24T03:58:11;15.20;;;5.18;;
59388;SDS011;51830;45.202;19.720;2023-03-24T04:00:38;19.77;;;7.53;;
59388;SDS011;51830;45.202;19.720;2023-03-24T04:05:35;24.83;;;10.65;;
59388;SDS011;51830;45.202;19.720;2023-03-24T04:13:16;33.85;;;15.90;;
59388;SDS011;51830;45.202;19.720;2023-03-24T04:20:46;35.15;;;16.00;;
59388;SDS011;51830;45.202;19.720;2023-03-24T04:28:18;26.20;;;9.57;;
59388;SDS011;51830;45.202;19.720;2023-03-24T04:31:33;21.52;;;8.90;;
59388;SDS011;51830;45.202;19.720;2023-03-24T04:36:15;21.00;;;6.22;;
59388;SDS011;51830;45.202;19.720;2023-03-24T04:38:46;25.92;;;12.43;;
59388;SDS011;51830;45.202;19.720;2023-03-24T04:41:14;19.63;;;8.05;;
59388;SDS011;51830;45.202;19.720;2023-03-24T04:43:43;18.65;;;6.95;;
59388;SDS011;51830;45.202;19.720;2023-03-24T04:46:11;16.15;;;5.65;;
59388;SDS011;51830;45.202;19.720;2023-03-24T04:48:44;16.23;;;5.25;;
59388;SDS011;51830;45.202;19.720;2023-03-24T04:51:15;15.27;;;4.25;;
59388;SDS011;51830;45.202;19.720;2023-03-24T04:53:41;17.30;;;4.40;;
59388;SDS011;51830;45.202;19.720;2023-03-24T04:58:43;20.63;;;4.18;;
59388;SDS011;51830;45.202;19.720;2023-03-24T05:01:09;14.75;;;4.38;;
59388;SDS011;51830;45.202;19.720;2023-03-24T05:03:35;13.88;;;4.78;;
59388;SDS011;51830;45.202;19.720;2023-03-24T05:06:02;17.55;;;4.18;;
59388;SDS011;51830;45.202;19.720;2023-03-24T05:08:29;15.93;;;4.13;;
59388;SDS011;51830;45.202;19.720;2023-03-24T05:10:56;14.98;;;4.85;;
59388;SDS011;51830;45.202;19.720;2023-03-24T05:13:23;14.00;;;4.13;;
59388;SDS011;51830;45.202;19.720;2023-03-24T05:15:51;14.52;;;4.50;;
59388;SDS011;51830;45.202;19.720;2023-03-24T05:18:17;17.13;;;4.65;;
59388;SDS011;51830;45.202;19.720;2023-03-24T05:20:44;16.58;;;5.10;;
59388;SDS011;51830;45.202;19.720;2023-03-24T05:23:10;17.70;;;5.13;;
59388;SDS011;51830;45.202;19.720;2023-03-24T05:25:36;16.17;;;5.05;;
59388;SDS011;51830;45.202;19.720;2023-03-24T05:28:03;20.48;;;5.90;;
59388;SDS011;51830;45.202;19.720;2023-03-24T05:30:31;22.10;;;6.60;;
59388;SDS011;51830;45.202;19.720;2023-03-24T05:32:57;29.92;;;7.30;;
59388;SDS011;51830;45.202;19.720;2023-03-24T05:35:23;18.75;;;6.78;;
59388;SDS011;51830;45.202;19.720;2023-03-24T05:37:50;23.83;;;7.13;;
59388;SDS011;51830;45.202;19.720;2023-03-24T05:40:16;20.33;;;6.28;;
59388;SDS011;51830;45.202;19.720;2023-03-24T05:42:42;19.23;;;6.93;;
59388;SDS011;51830;45.202;19.720;2023-03-24T05:45:09;23.17;;;7.93;;
59388;SDS011;51830;45.202;19.720;2023-03-24T05:47:36;22.98;;;7.13;;
59388;SDS011;51830;45.202;19.720;2023-03-24T05:50:03;19.83;;;5.93;;
59388;SDS011;51830;45.202;19.720;2023-03-24T05:52:30;18.85;;;5.45;;
59388;SDS011;51830;45.202;19.720;2023-03-24T05:54:57;18.30;;;6.10;;
59388;SDS011;51830;45.202;19.720;2023-03-24T05:57:23;20.45;;;6.93;;
59388;SDS011;51830;45.202;19.720;2023-03-24T05:59:49;150.55;;;52.60;;
59388;SDS011;51830;45.202;19.720;2023-03-24T06:02:17;61.63;;;24.20;;
59388;SDS011;51830;45.202;19.720;2023-03-24T06:04:43;55.80;;;20.40;;
59388;SDS011;51830;45.202;19.720;2023-03-24T06:07:10;167.43;;;51.53;;
59388;SDS011;51830;45.202;19.720;2023-03-24T06:09:37;28.42;;;9.93;;
59388;SDS011;51830;45.202;19.720;2023-03-24T06:12:06;27.42;;;8.88;;
59388;SDS011;51830;45.202;19.720;2023-03-24T06:14:33;18.83;;;6.03;;
59388;SDS011;51830;45.202;19.720;2023-03-24T06:16:59;21.05;;;5.60;;
59388;SDS011;51830;45.202;19.720;2023-03-24T06:19:26;17.33;;;4.90;;
59388;SDS011;51830;45.202;19.720;2023-03-24T06:21:55;16.77;;;5.55;;
59388;SDS011;51830;45.202;19.720;2023-03-24T06:24:25;19.08;;;5.43;;
59388;SDS011;51830;45.202;19.720;2023-03-24T06:26:51;15.35;;;4.38;;
59388;SDS011;51830;45.202;19.720;2023-03-24T06:29:17;18.67;;;5.68;;
59388;SDS011;51830;45.202;19.720;2023-03-24T06:31:44;24.08;;;4.78;;
59388;SDS011;51830;45.202;19.720;2023-03-24T06:34:10;17.08;;;4.95;;
59388;SDS011;51830;45.202;19.720;2023-03-24T06:36:37;16.08;;;4.75;;
59388;SDS011;51830;45.202;19.720;2023-03-24T06:39:03;14.25;;;4.78;;
59388;SDS011;51830;45.202;19.720;2023-03-24T06:41:30;26.30;;;5.03;;
59388;SDS011;51830;45.202;19.720;2023-03-24T06:43:57;16.63;;;4.72;;
59388;SDS011;51830;45.202;19.720;2023-03-24T06:46:23;22.60;;;6.18;;
59388;SDS011;51830;45.202;19.720;2023-03-24T06:48:49;15.45;;;4.35;;
59388;SDS011;51830;45.202;19.720;2023-03-24T06:51:16;18.73;;;5.78;;
59388;SDS011;51830;45.202;19.720;2023-03-24T06:53:42;27.02;;;5.75;;
59388;SDS011;51830;45.202;19.720;2023-03-24T06:56:10;19.58;;;5.25;;
59388;SDS011;51830;45.202;19.720;2023-03-24T06:58:41;20.83;;;4.72;;
59388;SDS011;51830;45.202;19.720;2023-03-24T07:01:08;18.00;;;5.15;;
59388;SDS011;51830;45.202;19.720;2023-03-24T07:03:35;18.90;;;5.10;;
59388;SDS011;51830;45.202;19.720;2023-03-24T07:06:03;17.30;;;4.53;;
59388;SDS011;51830;45.202;19.720;2023-03-24T07:08:30;19.50;;;5.10;;
59388;SDS011;51830;45.202;19.720;2023-03-24T07:10:58;20.25;;;5.93;;
59388;SDS011;51830;45.202;19.720;2023-03-24T07:13:24;25.63;;;5.35;;
59388;SDS011;51830;45.202;19.720;2023-03-24T07:15:50;17.98;;;4.80;;
59388;SDS011;51830;45.202;19.720;2023-03-24T07:18:17;23.83;;;5.15;;
59388;SDS011;51830;45.202;19.720;2023-03-24T07:20:44;19.80;;;5.40;;
59388;SDS011;51830;45.202;19.720;2023-03-24T07:23:10;27.20;;;5.75;;
59388;SDS011;51830;45.202;19.720;2023-03-24T07:25:38;21.33;;;6.05;;
59388;SDS011;51830;45.202;19.720;2023-03-24T07:28:05;18.08;;;5.00;;
59388;SDS011;51830;45.202;19.720;2023-03-24T07:30:32;16.58;;;5.28;;
59388;SDS011;51830;45.202;19.720;2023-03-24T07:33:00;16.25;;;5.10;;
59388;SDS011;51830;45.202;19.720;2023-03-24T07:35:27;19.80;;;5.68;;
59388;SDS011;51830;45.202;19.720;2023-03-24T07:37:56;18.05;;;4.75;;
59388;SDS011;51830;45.202;19.720;2023-03-24T07:40:22;16.98;;;5.65;;
59388;SDS011;51830;45.202;19.720;2023-03-24T07:42:49;18.85;;;5.20;;
59388;SDS011;51830;45.202;19.720;2023-03-24T07:45:15;24.35;;;5.72;;
59388;SDS011;51830;45.202;19.720;2023-03-24T07:47:43;21.98;;;5.22;;
59388;SDS011;51830;45.202;19.720;2023-03-24T07:50:09;18.52;;;6.07;;
59388;SDS011;51830;45.202;19.720;2023-03-24T07:52:36;19.23;;;6.43;;
59388;SDS011;51830;45.202;19.720;2023-03-24T07:55:04;22.00;;;6.57;;
59388;SDS011;51830;45.202;19.720;2023-03-24T07:57:32;22.45;;;8.52;;
59388;SDS011;51830;45.202;19.720;2023-03-24T08:00:05;27.80;;;9.05;;
59388;SDS011;51830;45.202;19.720;2023-03-24T08:02:52;22.02;;;8.40;;
59388;SDS011;51830;45.202;19.720;2023-03-24T08:05:19;20.60;;;8.70;;
59388;SDS011;51830;45.202;19.720;2023-03-24T08:07:46;23.08;;;8.85;;
59388;SDS011;51830;45.202;19.720;2023-03-24T08:10:14;22.70;;;8.32;;
59388;SDS011;51830;45.202;19.720;2023-03-24T08:12:41;19.52;;;6.28;;
59388;SDS011;51830;45.202;19.720;2023-03-24T08:15:07;19.23;;;7.22;;
59388;SDS011;51830;45.202;19.720;2023-03-24T08:17:34;19.23;;;6.57;;
59388;SDS011;51830;45.202;19.720;2023-03-24T08:20:01;19.85;;;7.13;;
59388;SDS011;51830;45.202;19.720;2023-03-24T08:22:38;19.95;;;7.20;;
59388;SDS011;51830;45.202;19.720;2023-03-24T08:25:05;20.80;;;7.47;;
59388;SDS011;51830;45.202;19.720;2023-03-24T08:27:31;17.77;;;6.97;;
59388;SDS011;51830;45.202;19.720;2023-03-24T08:29:57;20.98;;;7.93;;
59388;SDS011;51830;45.202;19.720;2023-03-24T08:32:23;19.52;;;7.18;;
59388;SDS011;51830;45.202;19.720;2023-03-24T08:34:50;23.65;;;6.85;;
59388;SDS011;51830;45.202;19.720;2023-03-24T08:37:16;19.02;;;5.70;;
59388;SDS011;51830;45.202;19.720;2023-03-24T08:39:42;18.45;;;6.63;;
59388;SDS011;51830;45.202;19.720;2023-03-24T08:42:08;18.17;;;6.50;;
59388;SDS011;51830;45.202;19.720;2023-03-24T08:44:34;19.08;;;5.55;;
59388;SDS011;51830;45.202;19.720;2023-03-24T08:47:01;24.20;;;6.47;;
59388;SDS011;51830;45.202;19.720;2023-03-24T08:49:27;23.10;;;6.05;;
59388;SDS011;51830;45.202;19.720;2023-03-24T08:51:53;26.67;;;6.38;;
59388;SDS011;51830;45.202;19.720;2023-03-24T08:54:19;16.10;;;5.07;;
59388;SDS011;51830;45.202;19.720;2023-03-24T08:56:47;16.42;;;4.95;;
59388;SDS011;51830;45.202;19.720;2023-03-24T08:59:13;19.05;;;5.22;;
59388;SDS011;51830;45.202;19.720;2023-03-24T09:01:39;17.98;;;5.03;;
59388;SDS011;51830;45.202;19.720;2023-03-24T09:04:06;16.52;;;4.70;;
59388;SDS011;51830;45.202;19.720;2023-03-24T09:06:32;17.15;;;5.70;;
59388;SDS011;51830;45.202;19.720;2023-03-24T09:08:58;19.25;;;5.80;;
59388;SDS011;51830;45.202;19.720;2023-03-24T09:11:24;16.75;;;5.00;;
59388;SDS011;51830;45.202;19.720;2023-03-24T09:13:50;18.27;;;5.00;;
59388;SDS011;51830;45.202;19.720;2023-03-24T09:16:17;20.08;;;4.80;;
59388;SDS011;51830;45.202;19.720;2023-03-24T09:18:43;14.07;;;4.43;;
59388;SDS011;51830;45.202;19.720;2023-03-24T09:21:10;17.98;;;4.85;;
59388;SDS011;51830;45.202;19.720;2023-03-24T09:23:36;15.63;;;5.00;;
59388;SDS011;51830;45.202;19.720;2023-03-24T09:26:02;16.10;;;5.20;;
59388;SDS011;51830;45.202;19.720;2023-03-24T09:28:31;16.67;;;5.13;;
59388;SDS011;51830;45.202;19.720;2023-03-24T09:30:57;14.20;;;4.20;;
59388;SDS011;51830;45.202;19.720;2023-03-24T09:33:24;15.90;;;3.92;;
59388;SDS011;51830;45.202;19.720;2023-03-24T09:35:53;13.00;;;3.58;;
59388;SDS011;51830;45.202;19.720;2023-03-24T09:38:20;13.40;;;3.63;;
59388;SDS011;51830;45.202;19.720;2023-03-24T09:40:46;11.63;;;2.88;;
59388;SDS011;51830;45.202;19.720;2023-03-24T09:45:56;13.13;;;3.40;;
59388;SDS011;51830;45.202;19.720;2023-03-24T09:51:30;11.80;;;3.00;;
59388;SDS011;51830;45.202;19.720;2023-03-24T09:56:34;12.60;;;3.40;;
59388;SDS011;51830;45.202;19.720;2023-03-24T10:01:27;11.82;;;2.88;;
59388;SDS011;51830;45.202;19.720;2023-03-24T10:03:55;13.52;;;3.08;;
59388;SDS011;51830;45.202;19.720;2023-03-24T10:06:22;10.00;;;2.78;;
59388;SDS011;51830;45.202;19.720;2023-03-24T10:11:43;13.05;;;2.90;;
59388;SDS011;51830;45.202;19.720;2023-03-24T10:21:34;9.45;;;2.47;;
59388;SDS011;51830;45.202;19.720;2023-03-24T10:29:29;10.70;;;2.95;;
59388;SDS011;51830;45.202;19.720;2023-03-24T10:31:57;10.77;;;2.80;;
59388;SDS011;51830;45.202;19.720;2023-03-24T10:34:26;10.88;;;2.83;;
59388;SDS011;51830;45.202;19.720;2023-03-24T10:36:54;10.52;;;2.70;;
59388;SDS011;51830;45.202;19.720;2023-03-24T10:39:22;9.88;;;2.75;;
59388;SDS011;51830;45.202;19.720;2023-03-24T10:41:49;10.52;;;2.90;;
59388;SDS011;51830;45.202;19.720;2023-03-24T10:44:16;11.93;;;2.72;;
59388;SDS011;51830;45.202;19.720;2023-03-24T10:46:47;11.30;;;3.10;;
59388;SDS011;51830;45.202;19.720;2023-03-24T10:49:15;10.60;;;2.75;;
59388;SDS011;51830;45.202;19.720;2023-03-24T10:51:46;11.82;;;3.20;;
59388;SDS011;51830;45.202;19.720;2023-03-24T10:56:47;11.50;;;3.15;;
59388;SDS011;51830;45.202;19.720;2023-03-24T10:59:27;11.65;;;3.00;;
59388;SDS011;51830;45.202;19.720;2023-03-24T11:02:38;14.60;;;3.70;;
59388;SDS011;51830;45.202;19.720;2023-03-24T11:05:02;11.80;;;3.05;;
59388;SDS011;51830;45.202;19.720;2023-03-24T11:07:41;13.32;;;3.20;;
59388;SDS011;51830;45.202;19.720;2023-03-24T11:13:01;11.55;;;3.20;;
59388;SDS011;51830;45.202;19.720;2023-03-24T11:15:29;13.43;;;3.47;;
59388;SDS011;51830;45.202;19.720;2023-03-24T11:20:43;11.50;;;2.92;;
59388;SDS011;51830;45.202;19.720;2023-03-24T11:23:15;13.25;;;3.20;;
59388;SDS011;51830;45.202;19.720;2023-03-24T11:25:43;12.57;;;3.20;;
59388;SDS011;51830;45.202;19.720;2023-03-24T11:28:14;10.43;;;2.60;;
59388;SDS011;51830;45.202;19.720;2023-03-24T11:30:47;13.35;;;2.80;;
59388;SDS011;51830;45.202;19.720;2023-03-24T11:33:17;11.13;;;3.08;;
59388;SDS011;51830;45.202;19.720;2023-03-24T11:35:44;11.15;;;3.10;;
59388;SDS011;51830;45.202;19.720;2023-03-24T11:38:15;9.13;;;2.50;;
59388;SDS011;51830;45.202;19.720;2023-03-24T11:41:02;10.95;;;2.90;;
59388;SDS011;51830;45.202;19.720;2023-03-24T11:43:31;15.98;;;3.47;;
59388;SDS011;51830;45.202;19.720;2023-03-24T11:46:15;14.02;;;2.92;;
59388;SDS011;51830;45.202;19.720;2023-03-24T11:48:49;9.45;;;2.60;;
59388;SDS011;51830;45.202;19.720;2023-03-24T11:51:22;11.60;;;2.60;;
59388;SDS011;51830;45.202;19.720;2023-03-24T11:53:50;9.18;;;2.30;;
59388;SDS011;51830;45.202;19.720;2023-03-24T11:58:48;7.65;;;2.55;;
59388;SDS011;51830;45.202;19.720;2023-03-24T12:01:20;9.23;;;2.20;;
59388;SDS011;51830;45.202;19.720;2023-03-24T12:03:58;11.10;;;2.80;;
59388;SDS011;51830;45.202;19.720;2023-03-24T12:06:41;11.07;;;2.65;;
59388;SDS011;51830;45.202;19.720;2023-03-24T12:14:10;10.38;;;2.80;;
59388;SDS011;51830;45.202;19.720;2023-03-24T12:21:57;12.00;;;2.75;;
59388;SDS011;51830;45.202;19.720;2023-03-24T12:27:35;10.57;;;2.58;;
59388;SDS011;51830;45.202;19.720;2023-03-24T12:30:01;9.95;;;2.67;;
59388;SDS011;51830;45.202;19.720;2023-03-24T12:32:48;11.02;;;2.50;;
59388;SDS011;51830;45.202;19.720;2023-03-24T12:35:22;15.30;;;3.13;;
59388;SDS011;51830;45.202;19.720;2023-03-24T12:43:10;11.25;;;2.92;;
59388;SDS011;51830;45.202;19.720;2023-03-24T12:45:45;10.25;;;2.72;;
59388;SDS011;51830;45.202;19.720;2023-03-24T12:48:33;11.73;;;2.78;;
59388;SDS011;51830;45.202;19.720;2023-03-24T12:54:08;13.20;;;3.30;;
59388;SDS011;51830;45.202;19.720;2023-03-24T12:56:31;11.98;;;3.08;;
59388;SDS011;51830;45.202;19.720;2023-03-24T12:59:16;11.05;;;2.75;;
59388;SDS011;51830;45.202;19.720;2023-03-24T13:01:45;12.60;;;3.13;;
59388;SDS011;51830;45.202;19.720;2023-03-24T13:04:19;11.93;;;2.85;;
59388;SDS011;51830;45.202;19.720;2023-03-24T13:11:59;14.82;;;3.20;;
59388;SDS011;51830;45.202;19.720;2023-03-24T13:14:33;11.57;;;3.15;;
59388;SDS011;51830;45.202;19.720;2023-03-24T13:17:03;15.13;;;3.30;;
59388;SDS011;51830;45.202;19.720;2023-03-24T13:19:30;14.20;;;3.90;;
59388;SDS011;51830;45.202;19.720;2023-03-24T13:21:58;15.60;;;4.32;;
59388;SDS011;51830;45.202;19.720;2023-03-24T13:24:24;15.45;;;4.30;;
59388;SDS011;51830;45.202;19.720;2023-03-24T13:26:54;14.80;;;3.70;;
59388;SDS011;51830;45.202;19.720;2023-03-24T13:32:54;14.10;;;3.47;;
59388;SDS011;51830;45.202;19.720;2023-03-24T13:37:24;12.50;;;3.40;;
59388;SDS011;51830;45.202;19.720;2023-03-24T13:39:53;13.00;;;3.10;;
59388;SDS011;51830;45.202;19.720;2023-03-24T13:42:31;10.63;;;3.00;;
59388;SDS011;51830;45.202;19.720;2023-03-24T13:44:59;11.55;;;3.10;;
59388;SDS011;51830;45.202;19.720;2023-03-24T13:47:26;12.48;;;3.17;;
59388;SDS011;51830;45.202;19.720;2023-03-24T13:49:59;12.65;;;3.13;;
59388;SDS011;51830;45.202;19.720;2023-03-24T13:52:27;13.85;;;3.33;;
59388;SDS011;51830;45.202;19.720;2023-03-24T13:54:57;13.40;;;3.20;;
59388;SDS011;51830;45.202;19.720;2023-03-24T13:57:23;12.70;;;3.10;;
59388;SDS011;51830;45.202;19.720;2023-03-24T14:07:28;9.45;;;2.67;;
59388;SDS011;51830;45.202;19.720;2023-03-24T14:10:09;7.22;;;2.25;;
59388;SDS011;51830;45.202;19.720;2023-03-24T14:12:50;12.75;;;2.88;;
59388;SDS011;51830;45.202;19.720;2023-03-24T14:15:17;11.80;;;2.63;;
59388;SDS011;51830;45.202;19.720;2023-03-24T14:17:45;7.82;;;2.35;;
59388;SDS011;51830;45.202;19.720;2023-03-24T14:20:22;10.05;;;2.70;;
59388;SDS011;51830;45.202;19.720;2023-03-24T14:22:49;9.65;;;2.50;;
59388;SDS011;51830;45.202;19.720;2023-03-24T14:27:46;11.07;;;3.05;;
59388;SDS011;51830;45.202;19.720;2023-03-24T14:30:17;11.02;;;2.95;;
59388;SDS011;51830;45.202;19.720;2023-03-24T14:32:49;10.35;;;2.88;;
59388;SDS011;51830;45.202;19.720;2023-03-24T14:36:02;14.75;;;3.13;;
59388;SDS011;51830;45.202;19.720;2023-03-24T14:40:47;9.02;;;2.70;;
59388;SDS011;51830;45.202;19.720;2023-03-24T14:43:22;12.57;;;2.78;;
59388;SDS011;51830;45.202;19.720;2023-03-24T14:54:01;12.75;;;2.80;;
59388;SDS011;51830;45.202;19.720;2023-03-24T14:56:33;7.78;;;2.38;;
59388;SDS011;51830;45.202;19.720;2023-03-24T14:59:01;10.80;;;2.75;;
59388;SDS011;51830;45.202;19.720;2023-03-24T15:01:29;9.45;;;2.50;;
59388;SDS011;51830;45.202;19.720;2023-03-24T15:06:24;12.75;;;3.03;;
59388;SDS011;51830;45.202;19.720;2023-03-24T15:08:54;10.07;;;2.85;;
59388;SDS011;51830;45.202;19.720;2023-03-24T15:11:32;11.25;;;2.90;;
59388;SDS011;51830;45.202;19.720;2023-03-24T15:13:59;12.20;;;2.90;;
59388;SDS011;51830;45.202;19.720;2023-03-24T15:16:27;12.85;;;3.03;;
59388;SDS011;51830;45.202;19.720;2023-03-24T15:21:31;8.63;;;2.45;;
59388;SDS011;51830;45.202;19.720;2023-03-24T15:23:58;14.45;;;2.97;;
59388;SDS011;51830;45.202;19.720;2023-03-24T15:26:29;8.98;;;2.67;;
59388;SDS011;51830;45.202;19.720;2023-03-24T15:28:59;9.75;;;2.90;;
59388;SDS011;51830;45.202;19.720;2023-03-24T15:31:26;10.77;;;2.85;;
59388;SDS011;51830;45.202;19.720;2023-03-24T15:34:06;9.82;;;2.60;;
59388;SDS011;51830;45.202;19.720;2023-03-24T15:36:33;11.32;;;3.42;;
59388;SDS011;51830;45.202;19.720;2023-03-24T15:39:09;12.45;;;3.03;;
59388;SDS011;51830;45.202;19.720;2023-03-24T15:41:41;11.35;;;2.88;;
59388;SDS011;51830;45.202;19.720;2023-03-24T15:44:08;10.43;;;2.58;;
59388;SDS011;51830;45.202;19.720;2023-03-24T15:46:34;9.00;;;2.65;;
59388;SDS011;51830;45.202;19.720;2023-03-24T15:49:00;9.95;;;2.70;;
59388;SDS011;51830;45.202;19.720;2023-03-24T15:54:22;12.82;;;2.88;;
59388;SDS011;51830;45.202;19.720;2023-03-24T15:57:02;16.38;;;3.28;;
59388;SDS011;51830;45.202;19.720;2023-03-24T15:59:32;11.10;;;2.83;;
59388;SDS011;51830;45.202;19.720;2023-03-24T16:01:59;13.38;;;3.28;;
59388;SDS011;51830;45.202;19.720;2023-03-24T16:04:27;10.95;;;2.65;;
59388;SDS011;51830;45.202;19.720;2023-03-24T16:06:54;14.38;;;2.55;;
59388;SDS011;51830;45.202;19.720;2023-03-24T16:09:22;17.98;;;4.03;;
59388;SDS011;51830;45.202;19.720;2023-03-24T16:11:51;14.25;;;3.65;;
59388;SDS011;51830;45.202;19.720;2023-03-24T16:14:25;24.38;;;5.80;;
59388;SDS011;51830;45.202;19.720;2023-03-24T16:16:55;16.95;;;5.05;;
59388;SDS011;51830;45.202;19.720;2023-03-24T16:19:22;14.73;;;3.67;;
59388;SDS011;51830;45.202;19.720;2023-03-24T16:21:48;16.52;;;4.00;;
59388;SDS011;51830;45.202;19.720;2023-03-24T16:24:15;14.27;;;3.67;;
59388;SDS011;51830;45.202;19.720;2023-03-24T16:26:41;23.17;;;3.83;;
59388;SDS011;51830;45.202;19.720;2023-03-24T16:29:18;11.00;;;2.97;;
59388;SDS011;51830;45.202;19.720;2023-03-24T16:31:45;11.70;;;3.08;;
59388;SDS011;51830;45.202;19.720;2023-03-24T16:34:15;10.02;;;3.05;;
59388;SDS011;51830;45.202;19.720;2023-03-24T16:36:42;14.30;;;3.65;;
59388;SDS011;51830;45.202;19.720;2023-03-24T16:39:12;12.40;;;3.28;;
59388;SDS011;51830;45.202;19.720;2023-03-24T16:41:40;13.65;;;3.90;;
59388;SDS011;51830;45.202;19.720;2023-03-24T16:44:06;14.25;;;4.10;;
59388;SDS011;51830;45.202;19.720;2023-03-24T16:46:33;15.32;;;4.15;;
59388;SDS011;51830;45.202;19.720;2023-03-24T16:49:00;13.68;;;4.30;;
59388;SDS011;51830;45.202;19.720;2023-03-24T16:51:26;17.98;;;5.05;;
59388;SDS011;51830;45.202;19.720;2023-03-24T16:53:54;17.27;;;4.90;;
59388;SDS011;51830;45.202;19.720;2023-03-24T16:56:21;17.60;;;4.90;;
59388;SDS011;51830;45.202;19.720;2023-03-24T16:58:48;19.92;;;5.80;;
59388;SDS011;51830;45.202;19.720;2023-03-24T17:03:55;22.50;;;8.52;;
59388;SDS011;51830;45.202;19.720;2023-03-24T17:06:22;35.03;;;10.02;;
59388;SDS011;51830;45.202;19.720;2023-03-24T17:08:49;29.05;;;10.35;;
59388;SDS011;51830;45.202;19.720;2023-03-24T17:11:16;34.13;;;14.18;;
59388;SDS011;51830;45.202;19.720;2023-03-24T17:13:43;42.15;;;15.80;;